createdAt,value
2023-02-28T00:00:39.820Z,2.44
2023-02-28T00:03:07.079Z,2.46
2023-02-28T00:05:34.486Z,2.45
2023-02-28T00:08:02.014Z,2.44
2023-02-28T00:10:31.287Z,2.42
2023-02-28T00:13:05.647Z,2.34
2023-02-28T00:15:33.317Z,2.43
2023-02-28T00:18:00.197Z,2.40
2023-02-28T00:20:27.807Z,2.38
2023-02-28T00:22:55.170Z,2.36
2023-02-28T00:25:25.634Z,2.39
2023-02-28T00:27:52.576Z,2.43
2023-02-28T00:30:21.942Z,2.33
2023-02-28T00:32:49.135Z,2.32
2023-02-28T00:35:16.052Z,2.36
2023-02-28T00:37:43.567Z,2.29
2023-02-28T00:40:13.053Z,2.24
2023-02-28T00:42:40.365Z,2.38
2023-02-28T00:45:09.341Z,2.37
2023-02-28T00:47:38.563Z,2.39
2023-02-28T00:50:06.697Z,2.45
2023-02-28T00:52:33.576Z,2.36
2023-02-28T00:55:01.492Z,2.44
2023-02-28T00:57:30.386Z,2.47
2023-02-28T00:59:57.286Z,2.35
2023-02-28T01:02:24.813Z,2.27
2023-02-28T01:04:53.427Z,2.36
2023-02-28T01:07:20.345Z,2.45
2023-02-28T01:09:47.142Z,2.56
2023-02-28T01:12:13.968Z,2.44
2023-02-28T01:14:40.814Z,2.29
2023-02-28T01:17:07.810Z,2.17
2023-02-28T01:19:34.846Z,2.15
2023-02-28T01:22:05.112Z,2.04
2023-02-28T01:24:34.364Z,1.95
2023-02-28T01:27:01.415Z,1.96
2023-02-28T01:29:28.245Z,2.00
2023-02-28T01:31:55.117Z,2.02
2023-02-28T01:34:22.962Z,2.12
2023-02-28T01:36:51.731Z,1.98
2023-02-28T01:39:19.522Z,1.99
2023-02-28T01:41:46.763Z,1.89
2023-02-28T01:44:51.033Z,1.99
2023-02-28T01:47:17.704Z,1.78
2023-02-28T01:49:45.123Z,1.79
2023-02-28T01:52:16.270Z,1.86
2023-02-28T01:54:43.074Z,1.91
2023-02-28T01:57:18.983Z,2.05
2023-02-28T01:59:51.904Z,1.91
2023-02-28T02:02:21.266Z,1.91
2023-02-28T02:04:54.484Z,1.92
2023-02-28T02:07:21.593Z,1.91
2023-02-28T02:09:48.618Z,1.94
2023-02-28T02:12:37.048Z,1.93
2023-02-28T02:15:17.099Z,1.95
2023-02-28T02:17:48.467Z,1.97
2023-02-28T02:20:31.236Z,1.92
2023-02-28T02:23:34.265Z,1.83
2023-02-28T02:26:39.857Z,1.83
2023-02-28T02:29:33.902Z,1.90
2023-02-28T02:32:01.913Z,1.84
2023-02-28T02:34:34.420Z,1.68
2023-02-28T02:37:30.022Z,1.41
2023-02-28T02:40:11.645Z,1.42
2023-02-28T02:43:19.530Z,1.24
2023-02-28T02:46:06.514Z,1.24
2023-02-28T02:48:36.244Z,1.34
2023-02-28T02:51:12.848Z,1.12
2023-02-28T02:53:50.966Z,1.08
2023-02-28T02:56:22.297Z,1.10
2023-02-28T02:58:52.751Z,1.06
2023-02-28T03:01:29.416Z,0.97
2023-02-28T03:04:06.553Z,0.93
2023-02-28T03:06:33.296Z,0.99
2023-02-28T03:09:01.994Z,0.98
2023-02-28T03:11:30.519Z,0.91
2023-02-28T03:14:32.056Z,0.96
2023-02-28T03:17:23.370Z,0.81
2023-02-28T03:20:29.045Z,0.81
2023-02-28T03:23:20.749Z,0.78
2023-02-28T03:25:57.091Z,0.80
2023-02-28T03:28:43.695Z,0.83
2023-02-28T03:31:36.432Z,0.90
2023-02-28T03:34:12.205Z,0.96
2023-02-28T03:36:47.543Z,0.90
2023-02-28T03:39:30.560Z,0.91
2023-02-28T03:42:02.973Z,0.91
2023-02-28T03:44:50.898Z,0.87
2023-02-28T03:47:20.902Z,0.98
2023-02-28T03:49:54.698Z,1.04
2023-02-28T03:52:26.407Z,1.10
2023-02-28T03:55:01.791Z,0.95
2023-02-28T03:57:59.199Z,0.73
2023-02-28T04:00:35.407Z,0.74
2023-02-28T04:03:03.568Z,0.66
2023-02-28T04:05:31.210Z,0.65
2023-02-28T04:08:06.686Z,0.62
2023-02-28T04:10:33.949Z,0.59
2023-02-28T04:13:00.750Z,0.61
2023-02-28T04:15:28.397Z,0.53
2023-02-28T04:17:55.445Z,0.51
2023-02-28T04:20:22.192Z,0.46
2023-02-28T04:22:48.933Z,0.47
2023-02-28T04:25:15.878Z,0.46
2023-02-28T04:27:42.811Z,0.45
2023-02-28T04:30:11.314Z,0.39
2023-02-28T04:32:38.162Z,0.33
2023-02-28T04:35:05.339Z,0.31
2023-02-28T04:37:35.852Z,0.32
2023-02-28T04:40:03.882Z,0.25
2023-02-28T04:42:36.530Z,0.27
2023-02-28T04:45:04.820Z,0.20
2023-02-28T04:47:31.811Z,0.20
2023-02-28T04:49:58.755Z,0.21
2023-02-28T04:52:25.787Z,0.32
2023-02-28T04:54:52.518Z,0.22
2023-02-28T04:57:19.358Z,0.16
2023-02-28T04:59:46.092Z,0.13
2023-02-28T05:02:12.864Z,0.12
2023-02-28T05:04:39.960Z,0.16
2023-02-28T05:07:06.787Z,0.16
2023-02-28T05:09:34.268Z,0.14
2023-02-28T05:12:01.167Z,0.18
2023-02-28T05:14:27.940Z,0.18
2023-02-28T05:16:54.732Z,0.18
2023-02-28T05:19:22.431Z,0.25
2023-02-28T05:21:55.245Z,0.29
2023-02-28T05:24:25.322Z,0.33
2023-02-28T05:26:54.132Z,0.40
2023-02-28T05:29:21.200Z,0.42
2023-02-28T05:31:51.311Z,0.46
2023-02-28T05:34:18.591Z,0.48
2023-02-28T05:36:45.442Z,0.57
2023-02-28T05:39:13.934Z,0.61
2023-02-28T05:41:42.575Z,0.66
2023-02-28T05:44:09.720Z,0.75
2023-02-28T05:46:36.603Z,0.86
2023-02-28T05:49:03.801Z,1.05
2023-02-28T05:51:30.911Z,1.07
2023-02-28T05:54:01.551Z,1.05
2023-02-28T05:56:28.690Z,1.02
2023-02-28T05:58:55.594Z,1.02
2023-02-28T06:01:33.058Z,1.01
2023-02-28T06:04:04.963Z,1.04
2023-02-28T06:06:32.245Z,1.17
2023-02-28T06:08:59.333Z,1.20
2023-02-28T06:11:28.702Z,1.31
2023-02-28T06:14:01.505Z,1.38
2023-02-28T06:16:29.811Z,1.45
2023-02-28T06:18:59.389Z,1.37
2023-02-28T06:21:26.352Z,1.50
2023-02-28T06:23:53.146Z,1.65
2023-02-28T06:26:20.526Z,1.85
2023-02-28T06:28:48.025Z,1.94
2023-02-28T06:31:17.577Z,1.93
2023-02-28T06:33:45.799Z,1.94
2023-02-28T06:36:14.337Z,1.94
2023-02-28T06:38:42.413Z,1.79
2023-02-28T06:41:09.878Z,1.69
2023-02-28T06:43:40.014Z,1.63
2023-02-28T06:46:09.383Z,1.69
2023-02-28T06:48:37.054Z,1.75
2023-02-28T06:51:09.600Z,1.61
2023-02-28T06:53:37.729Z,1.43
2023-02-28T06:56:09.479Z,1.77
2023-02-28T06:58:36.817Z,2.27
2023-02-28T07:01:04.796Z,2.88
2023-02-28T07:03:34.287Z,3.57
2023-02-28T07:06:02.113Z,3.93
2023-02-28T07:08:28.938Z,4.33
2023-02-28T07:10:57.157Z,4.87
2023-02-28T07:13:24.691Z,5.39
2023-02-28T07:15:55.596Z,5.78
2023-02-28T07:18:22.756Z,6.25
2023-02-28T07:20:49.464Z,6.19
2023-02-28T07:23:16.685Z,5.96
2023-02-28T07:25:43.435Z,5.90
2023-02-28T07:28:10.247Z,5.90
2023-02-28T07:30:36.989Z,5.82
2023-02-28T07:33:04.677Z,6.27
2023-02-28T07:35:33.106Z,6.55
2023-02-28T07:38:01.176Z,6.41
2023-02-28T07:40:28.458Z,5.87
2023-02-28T07:42:55.311Z,5.45
2023-02-28T07:45:22.549Z,5.87
2023-02-28T07:47:49.864Z,5.88
2023-02-28T07:50:17.874Z,6.22
2023-02-28T07:52:44.654Z,6.55
2023-02-28T07:55:11.996Z,6.50
2023-02-28T07:57:39.795Z,6.03
2023-02-28T08:00:10.872Z,6.04
2023-02-28T08:02:41.592Z,6.12
2023-02-28T08:05:09.306Z,6.28
2023-02-28T08:07:36.210Z,6.23
2023-02-28T08:10:04.199Z,6.73
2023-02-28T08:12:31.012Z,6.68
2023-02-28T08:14:57.810Z,6.56
2023-02-28T08:17:24.604Z,6.49
2023-02-28T08:19:51.372Z,6.63
2023-02-28T08:22:18.184Z,6.75
2023-02-28T08:24:45.544Z,6.47
2023-02-28T08:27:12.548Z,6.60
2023-02-28T08:29:40.171Z,6.99
2023-02-28T08:32:17.409Z,6.92
2023-02-28T08:34:48.806Z,7.14
2023-02-28T08:37:15.656Z,7.16
2023-02-28T08:39:42.461Z,7.19
2023-02-28T08:42:09.626Z,7.60
2023-02-28T08:44:36.513Z,7.76
2023-02-28T08:47:03.420Z,7.76
2023-02-28T08:49:30.250Z,7.66
2023-02-28T08:51:58.220Z,7.62
2023-02-28T08:54:25.923Z,7.85
2023-02-28T08:56:52.741Z,7.98
2023-02-28T08:59:19.643Z,8.08
2023-02-28T09:01:46.383Z,8.02
2023-02-28T09:04:14.561Z,7.88
2023-02-28T09:06:45.466Z,8.08
2023-02-28T09:09:12.396Z,8.24
2023-02-28T09:11:39.167Z,8.54
2023-02-28T09:14:05.893Z,8.73
2023-02-28T09:16:34.486Z,8.83
2023-02-28T09:19:01.829Z,8.87
2023-02-28T09:21:29.733Z,8.81
2023-02-28T09:23:56.748Z,8.70
2023-02-28T09:26:34.787Z,8.76
2023-02-28T09:29:09.928Z,8.83
2023-02-28T09:31:36.825Z,8.87
2023-02-28T09:34:05.300Z,8.86
2023-02-28T09:36:43.729Z,8.82
2023-02-28T09:39:13.013Z,8.58
2023-02-28T09:41:51.762Z,8.29
2023-02-28T09:44:37.567Z,8.04
2023-02-28T09:47:30.309Z,8.02
2023-02-28T09:50:00.860Z,8.18
2023-02-28T09:52:32.854Z,8.07
2023-02-28T09:55:26.342Z,7.87
2023-02-28T09:57:54.282Z,7.81
2023-02-28T10:00:31.277Z,7.80
2023-02-28T10:03:24.689Z,7.61
2023-02-28T10:06:14.508Z,7.70
2023-02-28T10:08:57.279Z,7.74
2023-02-28T10:11:25.791Z,7.79
2023-02-28T10:14:13.828Z,7.66
2023-02-28T10:17:06.332Z,7.72
2023-02-28T10:19:47.895Z,7.77
2023-02-28T10:22:23.161Z,7.55
2023-02-28T10:24:57.516Z,7.40
2023-02-28T10:27:32.439Z,7.24
2023-02-28T10:30:01.986Z,7.25
2023-02-28T10:32:37.309Z,7.25
2023-02-28T10:35:16.222Z,7.06
2023-02-28T10:37:45.709Z,6.89
2023-02-28T10:40:36.655Z,6.77
2023-02-28T10:43:05.254Z,6.87
2023-02-28T10:45:38.182Z,6.84
2023-02-28T10:48:35.052Z,6.53
2023-02-28T10:51:04.997Z,6.61
2023-02-28T10:53:59.537Z,6.42
2023-02-28T10:56:27.787Z,6.46
2023-02-28T10:59:04.035Z,6.40
2023-02-28T11:01:36.748Z,6.38
2023-02-28T11:04:04.116Z,6.36
2023-02-28T11:06:34.209Z,6.41
2023-02-28T11:09:05.314Z,6.40
2023-02-28T11:11:43.347Z,6.51
2023-02-28T11:14:25.188Z,6.47
2023-02-28T11:16:53.673Z,6.54
2023-02-28T11:19:37.342Z,6.60
2023-02-28T11:22:06.515Z,6.67
2023-02-28T11:24:42.966Z,6.60
2023-02-28T11:27:32.672Z,6.57
2023-02-28T11:30:01.266Z,6.65
2023-02-28T11:32:31.453Z,6.58
2023-02-28T11:35:24.867Z,6.52
2023-02-28T11:37:51.844Z,6.45
2023-02-28T11:40:32.183Z,6.51
2023-02-28T11:43:04.701Z,6.52
2023-02-28T11:45:52.579Z,6.44
2023-02-28T11:48:33.933Z,6.51
2023-02-28T11:51:22.865Z,6.47
2023-02-28T11:54:24.135Z,6.46
2023-02-28T11:57:01.795Z,6.43
2023-02-28T12:00:17.146Z,6.36
2023-02-28T12:02:59.120Z,6.17
2023-02-28T12:05:33.928Z,6.05
2023-02-28T12:08:21.319Z,5.98
2023-02-28T12:11:18.674Z,5.97
2023-02-28T12:14:06.354Z,5.94
2023-02-28T12:16:58.279Z,6.01
2023-02-28T12:19:50.393Z,6.13
2023-02-28T12:22:44.111Z,6.06
2023-02-28T12:25:31.074Z,5.92
2023-02-28T12:27:58.117Z,6.00
2023-02-28T12:30:29.296Z,6.04
2023-02-28T12:33:14.247Z,6.14
2023-02-28T12:35:46.370Z,6.31
2023-02-28T12:38:18.794Z,6.40
2023-02-28T12:41:07.078Z,6.36
2023-02-28T12:43:39.069Z,6.39
2023-02-28T12:46:24.406Z,6.28
2023-02-28T12:49:25.685Z,6.20
2023-02-28T12:51:53.129Z,6.27
2023-02-28T12:54:38.474Z,6.22
2023-02-28T12:57:32.588Z,6.10
2023-02-28T13:00:03.309Z,6.23
2023-02-28T13:02:55.394Z,6.28
2023-02-28T13:05:59.746Z,6.32
2023-02-28T13:08:29.634Z,6.32
2023-02-28T13:10:56.578Z,6.26
2023-02-28T13:13:27.080Z,6.25
2023-02-28T13:16:01.477Z,6.23
2023-02-28T13:18:57.273Z,6.31
2023-02-28T13:21:30.013Z,6.22
2023-02-28T13:23:59.567Z,6.42
2023-02-28T13:26:52.062Z,6.02
2023-02-28T13:29:23.973Z,6.09
2023-02-28T13:32:12.378Z,6.10
2023-02-28T13:34:41.410Z,6.07
2023-02-28T13:37:22.764Z,6.03
2023-02-28T13:39:50.022Z,6.13
2023-02-28T13:42:38.219Z,6.03
2023-02-28T13:45:06.593Z,6.19
2023-02-28T13:47:37.423Z,6.16
2023-02-28T13:50:29.010Z,6.17
2023-02-28T13:53:07.864Z,6.29
2023-02-28T13:55:37.862Z,6.32
2023-02-28T13:58:40.180Z,6.24
2023-02-28T14:01:06.953Z,6.31
2023-02-28T14:03:53.412Z,6.33
2023-02-28T14:06:31.509Z,6.44
2023-02-28T14:09:31.661Z,6.35
2023-02-28T14:12:19.378Z,6.47
2023-02-28T14:14:47.353Z,6.46
2023-02-28T14:17:18.357Z,6.53
2023-02-28T14:19:51.068Z,6.52
2023-02-28T14:22:49.275Z,6.42
2023-02-28T14:25:45.185Z,6.33
2023-02-28T14:28:26.780Z,6.38
2023-02-28T14:31:08.863Z,6.17
2023-02-28T14:33:51.744Z,6.26
2023-02-28T14:36:22.447Z,6.22
2023-02-28T14:39:05.670Z,6.23
2023-02-28T14:41:38.397Z,6.27
2023-02-28T14:44:19.833Z,6.38
2023-02-28T14:47:05.461Z,6.36
2023-02-28T14:49:34.187Z,6.34
2023-02-28T14:52:25.941Z,6.39
2023-02-28T14:55:01.835Z,6.36
2023-02-28T14:57:42.993Z,6.31
2023-02-28T15:00:34.360Z,6.30
2023-02-28T15:03:22.946Z,6.25
2023-02-28T15:06:02.378Z,6.24
2023-02-28T15:08:36.874Z,6.30
2023-02-28T15:11:23.901Z,6.22
2023-02-28T15:13:57.514Z,6.25
2023-02-28T15:16:40.005Z,6.22
2023-02-28T15:19:24.033Z,6.15
2023-02-28T15:22:02.902Z,6.15
2023-02-28T15:24:45.741Z,6.14
2023-02-28T15:27:35.623Z,6.12
2023-02-28T15:30:18.973Z,6.09
2023-02-28T15:32:46.122Z,6.05
2023-02-28T15:35:20.665Z,6.02
2023-02-28T15:38:16.603Z,5.92
2023-02-28T15:41:00.134Z,5.87
2023-02-28T15:43:44.065Z,5.85
2023-02-28T15:46:14.522Z,5.89
2023-02-28T15:48:56.304Z,5.82
2023-02-28T15:51:30.577Z,5.87
2023-02-28T15:54:10.377Z,5.81
2023-02-28T15:56:45.805Z,5.85
2023-02-28T15:59:32.664Z,5.79
2023-02-28T16:02:22.364Z,5.73
2023-02-28T16:05:01.072Z,5.68
2023-02-28T16:07:30.970Z,5.71
2023-02-28T16:09:58.776Z,5.73
2023-02-28T16:12:32.400Z,5.65
2023-02-28T16:15:03.964Z,5.63
2023-02-28T16:17:36.313Z,5.57
2023-02-28T16:20:28.365Z,5.46
2023-02-28T16:22:57.176Z,5.46
2023-02-28T16:25:38.767Z,5.37
2023-02-28T16:28:13.474Z,5.36
2023-02-28T16:30:40.857Z,5.28
2023-02-28T16:33:10.859Z,5.28
2023-02-28T16:35:38.934Z,5.31
2023-02-28T16:38:05.757Z,5.31
2023-02-28T16:40:36.757Z,5.30
2023-02-28T16:43:11.274Z,5.27
2023-02-28T16:45:38.302Z,5.26
2023-02-28T16:48:05.146Z,5.22
2023-02-28T16:50:33.716Z,5.16
2023-02-28T16:53:01.527Z,5.15
2023-02-28T16:55:28.950Z,5.08
2023-02-28T16:57:59.696Z,5.05
2023-02-28T17:00:34.681Z,4.99
2023-02-28T17:03:04.199Z,4.97
2023-02-28T17:05:39.870Z,4.91
2023-02-28T17:08:06.811Z,4.91
2023-02-28T17:10:33.772Z,4.88
2023-02-28T17:13:13.150Z,4.87
2023-02-28T17:15:45.909Z,4.84
2023-02-28T17:18:20.244Z,4.78
2023-02-28T17:20:47.625Z,4.77
2023-02-28T17:23:14.869Z,4.77
2023-02-28T17:25:41.871Z,4.80
2023-02-28T17:28:10.300Z,4.83
2023-02-28T17:30:37.259Z,4.85
2023-02-28T17:33:06.480Z,4.87
2023-02-28T17:35:33.918Z,4.89
2023-02-28T17:38:00.759Z,4.93
2023-02-28T17:40:28.095Z,4.95
2023-02-28T17:42:57.804Z,4.97
2023-02-28T17:45:25.843Z,4.99
2023-02-28T17:47:52.805Z,5.00
2023-02-28T17:50:22.243Z,4.96
2023-02-28T17:52:51.573Z,4.96
2023-02-28T17:55:20.105Z,4.96
2023-02-28T17:57:47.239Z,4.96
2023-02-28T18:00:18.440Z,4.99
2023-02-28T18:02:45.991Z,5.02
2023-02-28T18:05:13.102Z,5.06
2023-02-28T18:07:41.900Z,5.09
2023-02-28T18:10:20.839Z,5.09
2023-02-28T18:12:52.153Z,5.10
2023-02-28T18:15:23.988Z,5.11
2023-02-28T18:17:51.554Z,5.11
2023-02-28T18:20:19.088Z,5.14
2023-02-28T18:22:46.201Z,5.12
2023-02-28T18:25:18.287Z,5.09
2023-02-28T18:27:59.505Z,5.02
2023-02-28T18:30:31.020Z,4.99
2023-02-28T18:33:00.034Z,4.98
2023-02-28T18:35:37.384Z,4.96
2023-02-28T18:38:16.898Z,4.88
2023-02-28T18:40:51.623Z,4.89
2023-02-28T18:43:19.385Z,4.90
2023-02-28T18:45:46.177Z,4.86
2023-02-28T18:48:15.052Z,4.84
2023-02-28T18:50:42.729Z,4.81
2023-02-28T18:53:11.400Z,4.77
2023-02-28T18:55:52.825Z,4.69
2023-02-28T18:58:19.800Z,4.69
2023-02-28T19:00:48.459Z,4.65
2023-02-28T19:03:15.526Z,4.60
2023-02-28T19:05:42.378Z,4.54
2023-02-28T19:08:09.371Z,4.52
2023-02-28T19:10:41.043Z,4.43
2023-02-28T19:13:08.019Z,4.38
2023-02-28T19:15:34.920Z,4.34
2023-02-28T19:18:02.054Z,4.32
2023-02-28T19:20:29.044Z,4.31
2023-02-28T19:22:55.821Z,4.30
2023-02-28T19:25:24.167Z,4.26
2023-02-28T19:27:55.320Z,4.18
2023-02-28T19:30:25.069Z,4.17
2023-02-28T19:32:51.952Z,4.10
2023-02-28T19:35:18.880Z,4.04
2023-02-28T19:37:45.701Z,4.02
2023-02-28T19:40:13.872Z,4.04
2023-02-28T19:42:41.098Z,4.01
2023-02-28T19:45:10.207Z,3.98
2023-02-28T19:47:38.395Z,3.98
2023-02-28T19:50:06.561Z,3.95
2023-02-28T19:52:34.808Z,3.93
2023-02-28T19:55:01.740Z,3.87
2023-02-28T19:57:31.822Z,3.82
2023-02-28T19:59:58.863Z,3.79
2023-02-28T20:02:26.363Z,3.75
2023-02-28T20:04:54.929Z,3.74
2023-02-28T20:07:22.589Z,3.73
2023-02-28T20:09:52.319Z,3.70
2023-02-28T20:12:24.889Z,3.66
2023-02-28T20:14:52.424Z,3.64
2023-02-28T20:17:19.535Z,3.66
2023-02-28T20:19:47.507Z,3.65
2023-02-28T20:22:14.480Z,3.64
2023-02-28T20:24:41.332Z,3.66
2023-02-28T20:27:08.324Z,3.65
2023-02-28T20:29:35.887Z,3.65
2023-02-28T20:32:02.893Z,3.70
2023-02-28T20:34:29.691Z,3.70
2023-02-28T20:36:56.753Z,3.73
2023-02-28T20:39:23.875Z,3.77
2023-02-28T20:41:51.246Z,3.78
2023-02-28T20:44:18.096Z,3.75
2023-02-28T20:46:44.861Z,3.74
2023-02-28T20:49:11.739Z,3.71
2023-02-28T20:51:40.262Z,3.71
2023-02-28T20:54:08.747Z,3.66
2023-02-28T20:56:35.646Z,3.66
2023-02-28T20:59:02.414Z,3.68
2023-02-28T21:01:30.389Z,3.69
2023-02-28T21:04:02.991Z,3.62
2023-02-28T21:06:32.513Z,3.61
2023-02-28T21:08:59.819Z,3.57
2023-02-28T21:11:29.413Z,3.52
2023-02-28T21:13:59.396Z,3.51
2023-02-28T21:16:29.615Z,3.51
2023-02-28T21:19:04.070Z,3.47
2023-02-28T21:21:35.952Z,3.46
2023-02-28T21:24:03.067Z,3.42
2023-02-28T21:26:31.479Z,3.38
2023-02-28T21:29:02.335Z,3.30
2023-02-28T21:31:32.035Z,3.25
2023-02-28T21:34:00.167Z,3.24
2023-02-28T21:36:32.916Z,3.25
2023-02-28T21:39:08.069Z,3.23
2023-02-28T21:41:35.316Z,3.23
2023-02-28T21:44:02.263Z,3.22
2023-02-28T21:46:30.840Z,3.18
2023-02-28T21:48:58.373Z,3.14
2023-02-28T21:51:31.441Z,3.07
2023-02-28T21:53:59.638Z,3.03
2023-02-28T21:56:29.280Z,2.97
2023-02-28T21:59:00.555Z,2.96
2023-02-28T22:01:39.214Z,2.94
2023-02-28T22:04:10.045Z,2.97
2023-02-28T22:06:39.502Z,2.96
2023-02-28T22:09:08.790Z,2.95
2023-02-28T22:11:37.298Z,2.92
2023-02-28T22:14:04.200Z,2.92
2023-02-28T22:16:44.233Z,2.90
2023-02-28T22:19:15.188Z,2.86
2023-02-28T22:21:42.152Z,2.86
2023-02-28T22:24:10.729Z,2.84
2023-02-28T22:26:38.405Z,2.84
2023-02-28T22:29:05.579Z,2.83
2023-02-28T22:31:34.911Z,2.79
2023-02-28T22:34:06.225Z,2.77
2023-02-28T22:36:34.065Z,2.75
2023-02-28T22:39:02.385Z,2.74
2023-02-28T22:41:29.969Z,2.74
2023-02-28T22:43:59.260Z,2.75
2023-02-28T22:46:27.619Z,2.74
2023-02-28T22:48:54.749Z,2.75
2023-02-28T22:51:24.071Z,2.72
2023-02-28T22:53:52.020Z,2.68
2023-02-28T22:56:21.150Z,2.66
2023-02-28T22:58:55.918Z,2.60
2023-02-28T23:01:25.009Z,2.62
2023-02-28T23:03:52.761Z,2.60
2023-02-28T23:06:26.516Z,2.60
2023-02-28T23:08:55.849Z,2.59
2023-02-28T23:11:35.622Z,2.57
2023-02-28T23:14:03.180Z,2.56
2023-02-28T23:16:38.950Z,2.53
2023-02-28T23:19:11.372Z,2.52
2023-02-28T23:21:39.131Z,2.50
2023-02-28T23:24:11.159Z,2.50
2023-02-28T23:26:42.043Z,2.48
2023-02-28T23:29:09.030Z,2.45
2023-02-28T23:31:36.450Z,2.45
2023-02-28T23:34:03.437Z,2.47
2023-02-28T23:36:30.786Z,2.46
2023-02-28T23:38:57.780Z,2.44
2023-02-28T23:41:25.433Z,2.40
2023-02-28T23:43:53.600Z,2.36
2023-02-28T23:46:21.252Z,2.36
2023-02-28T23:48:48.000Z,2.35
2023-02-28T23:51:17.762Z,2.34
2023-02-28T23:53:50.068Z,2.34
2023-02-28T23:56:21.877Z,2.36
2023-02-28T23:58:49.340Z,2.33
